createdAt,value
2023-02-06T00:02:14.142Z,23.62
2023-02-06T00:05:27.006Z,31.52
2023-02-06T00:08:39.316Z,22.30
2023-02-06T00:11:51.902Z,26.33
2023-02-06T00:15:04.466Z,26.45
2023-02-06T00:18:17.122Z,21.00
2023-02-06T00:21:29.789Z,21.10
2023-02-06T00:24:42.463Z,22.23
2023-02-06T00:27:54.852Z,22.08
2023-02-06T00:31:08.167Z,16.83
2023-02-06T00:34:20.616Z,17.23
2023-02-06T00:37:33.252Z,20.77
2023-02-06T00:40:45.656Z,24.90
2023-02-06T00:43:58.273Z,21.17
2023-02-06T00:47:10.628Z,23.35
2023-02-06T00:50:23.298Z,23.23
2023-02-06T00:53:35.680Z,24.12
2023-02-06T00:56:48.298Z,25.17
2023-02-06T01:00:00.635Z,21.77
2023-02-06T01:03:13.288Z,29.08
2023-02-06T01:06:25.748Z,25.67
2023-02-06T01:09:38.362Z,21.73
2023-02-06T01:12:50.751Z,17.35
2023-02-06T01:16:03.703Z,13.95
2023-02-06T01:19:16.133Z,15.80
2023-02-06T01:22:28.815Z,16.35
2023-02-06T01:25:41.190Z,9.25
2023-02-06T01:28:54.369Z,13.85
2023-02-06T01:32:06.715Z,17.15
2023-02-06T01:35:19.361Z,14.63
2023-02-06T01:38:31.725Z,14.10
2023-02-06T01:41:46.481Z,19.15
2023-02-06T01:45:17.275Z,15.20
2023-02-06T01:48:35.995Z,13.82
2023-02-06T01:51:48.799Z,13.50
2023-02-06T01:55:02.720Z,14.27
2023-02-06T01:58:17.751Z,20.00
2023-02-06T02:01:30.414Z,16.30
2023-02-06T02:04:43.015Z,14.52
2023-02-06T02:08:06.238Z,23.17
2023-02-06T02:11:31.866Z,17.40
2023-02-06T02:14:44.469Z,16.50
2023-02-06T02:18:16.988Z,20.77
2023-02-06T02:21:47.820Z,19.23
2023-02-06T02:25:25.307Z,20.58
2023-02-06T02:29:15.868Z,17.33
2023-02-06T02:32:49.878Z,15.32
2023-02-06T02:36:16.639Z,16.45
2023-02-06T02:39:55.033Z,20.58
2023-02-06T02:43:39.841Z,18.92
2023-02-06T02:46:53.130Z,16.58
2023-02-06T02:50:05.987Z,17.08
2023-02-06T02:53:19.241Z,15.57
2023-02-06T02:56:33.503Z,13.30
2023-02-06T02:59:47.095Z,21.65
2023-02-06T03:02:59.519Z,21.87
2023-02-06T03:06:22.287Z,15.73
2023-02-06T03:10:04.177Z,21.73
2023-02-06T03:13:28.056Z,15.68
2023-02-06T03:16:46.900Z,21.17
2023-02-06T03:19:59.601Z,26.30
2023-02-06T03:23:16.954Z,16.02
2023-02-06T03:26:29.778Z,16.08
2023-02-06T03:29:42.140Z,14.00
2023-02-06T03:32:57.653Z,16.92
2023-02-06T03:36:17.061Z,19.70
2023-02-06T03:39:29.703Z,18.23
2023-02-06T03:42:45.597Z,14.90
2023-02-06T03:46:01.286Z,16.03
2023-02-06T03:49:14.837Z,21.20
2023-02-06T03:52:30.453Z,15.70
2023-02-06T03:55:42.817Z,14.85
2023-02-06T03:58:55.486Z,15.98
2023-02-06T04:02:07.878Z,16.20
2023-02-06T04:05:20.547Z,18.20
2023-02-06T04:08:32.885Z,20.75
2023-02-06T04:11:45.466Z,17.90
2023-02-06T04:14:57.789Z,16.37
2023-02-06T04:18:10.481Z,17.67
2023-02-06T04:21:22.808Z,14.43
2023-02-06T04:24:35.508Z,15.13
2023-02-06T04:27:47.886Z,15.95
2023-02-06T04:31:00.707Z,23.92
2023-02-06T04:34:13.098Z,16.08
2023-02-06T04:37:25.696Z,24.77
2023-02-06T04:40:38.010Z,15.93
2023-02-06T04:43:50.620Z,14.60
2023-02-06T04:47:03.322Z,16.50
2023-02-06T04:50:17.057Z,20.90
2023-02-06T04:53:29.401Z,18.75
2023-02-06T04:56:42.051Z,21.10
2023-02-06T04:59:54.408Z,19.27
2023-02-06T05:03:07.231Z,19.60
2023-02-06T05:06:19.570Z,19.85
2023-02-06T05:09:32.175Z,21.15
2023-02-06T05:12:44.550Z,22.85
2023-02-06T05:16:01.505Z,31.85
2023-02-06T05:19:13.909Z,25.15
2023-02-06T05:22:26.561Z,31.00
2023-02-06T05:25:40.354Z,26.90
2023-02-06T05:28:54.595Z,19.35
2023-02-06T05:32:06.910Z,22.30
2023-02-06T05:35:19.510Z,13.75
2023-02-06T05:38:32.098Z,15.45
2023-02-06T05:41:44.763Z,19.27
2023-02-06T05:44:57.151Z,20.83
2023-02-06T05:48:09.779Z,18.55
2023-02-06T05:51:22.143Z,17.83
2023-02-06T05:54:34.802Z,25.00
2023-02-06T05:57:47.174Z,22.13
2023-02-06T06:00:59.895Z,24.40
2023-02-06T06:04:12.668Z,23.40
2023-02-06T06:07:25.008Z,17.52
2023-02-06T06:10:37.730Z,20.30
2023-02-06T06:13:50.125Z,24.33
2023-02-06T06:17:02.762Z,20.85
2023-02-06T06:20:15.063Z,32.97
2023-02-06T06:23:27.685Z,34.25
2023-02-06T06:26:40.205Z,35.75
2023-02-06T06:29:52.849Z,32.53
2023-02-06T06:33:05.729Z,30.45
2023-02-06T06:36:18.437Z,32.35
2023-02-06T06:39:30.847Z,26.62
2023-02-06T06:42:43.472Z,29.70
2023-02-06T06:45:55.876Z,34.50
2023-02-06T06:49:08.570Z,31.02
2023-02-06T06:52:25.418Z,26.85
2023-02-06T06:55:38.674Z,43.03
2023-02-06T06:58:51.106Z,44.95
2023-02-06T07:02:04.788Z,24.98
2023-02-06T07:05:17.104Z,26.45
2023-02-06T07:08:31.546Z,20.17
2023-02-06T07:11:43.891Z,22.15
2023-02-06T07:14:57.001Z,20.23
2023-02-06T07:18:11.620Z,21.17
2023-02-06T07:21:24.521Z,21.17
2023-02-06T07:24:36.867Z,20.50
2023-02-06T07:27:49.541Z,21.15
2023-02-06T07:31:06.023Z,19.83
2023-02-06T07:34:18.776Z,27.70
2023-02-06T07:37:31.769Z,23.38
2023-02-06T07:40:45.561Z,19.02
2023-02-06T07:43:58.273Z,17.15
2023-02-06T07:47:10.988Z,28.35
2023-02-06T07:50:23.349Z,20.15
2023-02-06T07:53:36.114Z,19.92
2023-02-06T07:56:48.624Z,24.08
2023-02-06T08:00:01.283Z,22.87
2023-02-06T08:03:13.699Z,17.83
2023-02-06T08:06:26.480Z,16.42
2023-02-06T08:09:38.788Z,20.15
2023-02-06T08:12:51.455Z,20.65
2023-02-06T08:16:05.759Z,17.65
2023-02-06T08:19:18.588Z,17.98
2023-02-06T08:22:31.016Z,14.68
2023-02-06T08:25:43.690Z,14.80
2023-02-06T08:28:56.460Z,14.50
2023-02-06T08:32:09.917Z,21.80
2023-02-06T08:35:23.302Z,15.93
2023-02-06T08:38:35.992Z,16.45
2023-02-06T08:41:48.467Z,17.85
2023-02-06T08:45:01.101Z,20.12
2023-02-06T08:48:13.417Z,17.92
2023-02-06T08:51:28.875Z,19.55
2023-02-06T08:54:41.272Z,17.92
2023-02-06T08:57:53.950Z,19.80
2023-02-06T09:01:13.874Z,16.52
2023-02-06T09:04:29.675Z,15.93
2023-02-06T09:07:42.080Z,14.75
2023-02-06T09:10:54.708Z,18.80
2023-02-06T09:14:07.896Z,15.98
2023-02-06T09:17:20.826Z,15.90
2023-02-06T09:20:33.182Z,20.85
2023-02-06T09:23:50.251Z,20.17
2023-02-06T09:27:02.577Z,22.37
2023-02-06T09:30:15.332Z,18.17
2023-02-06T09:33:27.698Z,19.42
2023-02-06T09:36:40.325Z,19.50
2023-02-06T09:39:52.771Z,17.60
2023-02-06T09:43:05.799Z,20.80
2023-02-06T09:46:21.321Z,16.45
2023-02-06T09:49:43.448Z,23.02
2023-02-06T09:53:17.349Z,17.73
2023-02-06T09:56:46.211Z,17.42
2023-02-06T10:00:06.109Z,13.68
2023-02-06T10:03:41.341Z,17.45
2023-02-06T10:07:02.874Z,13.48
2023-02-06T10:10:33.896Z,14.27
2023-02-06T10:13:52.878Z,14.23
2023-02-06T10:17:10.768Z,14.40
2023-02-06T10:20:59.005Z,14.15
2023-02-06T10:24:13.965Z,15.10
2023-02-06T10:27:26.640Z,15.60
2023-02-06T10:30:57.858Z,14.77
2023-02-06T10:34:20.547Z,17.33
2023-02-06T10:38:04.820Z,21.33
2023-02-06T10:42:11.329Z,18.20
2023-02-06T10:45:43.357Z,17.08
2023-02-06T10:49:06.859Z,17.87
2023-02-06T10:52:31.288Z,19.75
2023-02-06T10:55:49.925Z,16.92
2023-02-06T10:59:36.247Z,16.35
2023-02-06T11:03:06.621Z,14.25
2023-02-06T11:06:20.560Z,16.15
2023-02-06T11:09:33.225Z,12.73
2023-02-06T11:13:10.082Z,19.20
2023-02-06T11:16:26.720Z,20.17
2023-02-06T11:19:41.778Z,19.17
2023-02-06T11:22:54.468Z,18.27
2023-02-06T11:26:16.720Z,17.17
2023-02-06T11:29:37.076Z,23.52
2023-02-06T11:33:03.800Z,15.80
2023-02-06T11:39:40.832Z,16.98
2023-02-06T11:43:20.206Z,16.90
2023-02-06T11:46:35.360Z,14.27
2023-02-06T11:49:47.989Z,14.75
2023-02-06T11:53:00.283Z,16.37
2023-02-06T11:56:16.978Z,17.20
2023-02-06T11:59:30.418Z,14.67
2023-02-06T12:02:49.959Z,11.95
2023-02-06T12:06:38.563Z,15.98
2023-02-06T12:09:51.785Z,10.75
2023-02-06T12:13:20.112Z,14.23
2023-02-06T12:16:34.095Z,15.20
2023-02-06T12:19:50.334Z,12.98
2023-02-06T12:23:07.785Z,16.52
2023-02-06T12:26:22.527Z,25.00
2023-02-06T12:29:43.167Z,18.58
2023-02-06T12:33:04.963Z,14.73
2023-02-06T12:36:28.169Z,14.68
2023-02-06T12:39:42.107Z,14.77
2023-02-06T12:43:01.440Z,14.13
2023-02-06T12:46:17.455Z,15.55
2023-02-06T12:49:45.807Z,11.80
2023-02-06T12:53:23.203Z,12.18
2023-02-06T12:56:48.943Z,19.62
2023-02-06T13:00:27.281Z,19.58
2023-02-06T13:03:44.281Z,17.15
2023-02-06T13:10:20.290Z,19.02
2023-02-06T13:13:37.932Z,14.95
2023-02-06T13:20:14.101Z,16.00
2023-02-06T13:23:26.856Z,17.90
2023-02-06T13:26:46.338Z,15.07
2023-02-06T13:29:58.724Z,15.48
2023-02-06T13:33:19.360Z,12.60
2023-02-06T13:36:49.139Z,13.48
2023-02-06T13:40:26.710Z,14.57
2023-02-06T13:43:39.519Z,12.90
2023-02-06T13:47:00.378Z,14.57
2023-02-06T13:50:31.537Z,16.30
2023-02-06T13:54:10.923Z,15.65
2023-02-06T13:57:49.416Z,17.58
2023-02-06T14:01:02.063Z,13.90
2023-02-06T14:04:27.879Z,16.90
2023-02-06T14:07:40.115Z,17.30
2023-02-06T14:11:34.331Z,15.93
2023-02-06T14:15:05.858Z,12.23
2023-02-06T14:18:19.477Z,17.30
2023-02-06T14:21:54.242Z,17.65
2023-02-06T14:25:33.767Z,19.80
2023-02-06T14:29:35.681Z,17.77
2023-02-06T14:33:05.740Z,15.20
2023-02-06T14:36:29.970Z,18.73
2023-02-06T14:39:44.975Z,15.93
2023-02-06T14:42:58.281Z,21.50
2023-02-06T14:46:13.351Z,21.58
2023-02-06T14:49:32.084Z,16.17
2023-02-06T14:52:45.530Z,13.93
2023-02-06T14:56:24.243Z,14.95
2023-02-06T14:59:36.902Z,21.25
2023-02-06T15:03:23.305Z,15.45
2023-02-06T15:06:38.514Z,19.92
2023-02-06T15:10:05.159Z,16.05
2023-02-06T15:13:22.972Z,21.25
2023-02-06T15:16:48.300Z,18.42
2023-02-06T15:20:21.084Z,26.70
2023-02-06T15:23:53.133Z,22.95
2023-02-06T15:27:25.786Z,25.58
2023-02-06T15:30:38.502Z,26.87
2023-02-06T15:33:53.344Z,40.17
2023-02-06T15:37:32.866Z,31.42
2023-02-06T15:40:47.331Z,28.85
2023-02-06T15:44:12.509Z,31.08
2023-02-06T15:47:25.087Z,41.10
2023-02-06T15:50:37.724Z,44.05
2023-02-06T15:53:51.626Z,45.67
2023-02-06T15:57:08.741Z,46.30
2023-02-06T16:00:26.410Z,50.85
2023-02-06T16:03:40.680Z,54.65
2023-02-06T16:07:04.844Z,35.00
2023-02-06T16:10:26.078Z,36.50
2023-02-06T16:13:38.581Z,41.95
2023-02-06T16:16:59.031Z,35.92
2023-02-06T16:20:23.751Z,39.05
2023-02-06T16:23:59.833Z,31.17
2023-02-06T16:27:17.127Z,32.13
2023-02-06T16:30:34.523Z,39.40
2023-02-06T16:37:00.569Z,33.42
2023-02-06T16:40:12.972Z,39.83
2023-02-06T16:43:27.395Z,45.63
2023-02-06T16:46:39.755Z,50.70
2023-02-06T16:49:52.411Z,54.10
2023-02-06T16:53:04.794Z,45.72
2023-02-06T16:56:18.108Z,56.92
2023-02-06T16:59:30.480Z,61.25
2023-02-06T17:02:43.140Z,52.42
2023-02-06T17:05:55.516Z,66.50
2023-02-06T17:09:09.170Z,64.55
2023-02-06T17:12:21.824Z,79.90
2023-02-06T17:15:34.485Z,72.12
2023-02-06T17:18:46.988Z,79.78
2023-02-06T17:21:59.640Z,80.20
2023-02-06T17:25:11.967Z,73.10
2023-02-06T17:28:24.632Z,60.05
2023-02-06T17:31:37.024Z,52.67
2023-02-06T17:34:51.037Z,56.72
2023-02-06T17:38:04.881Z,60.72
2023-02-06T17:41:17.488Z,68.82
2023-02-06T17:44:29.819Z,59.70
2023-02-06T17:47:42.492Z,61.03
2023-02-06T17:50:54.913Z,61.50
2023-02-06T17:54:07.652Z,68.45
2023-02-06T17:57:19.985Z,70.97
2023-02-06T18:00:32.698Z,82.25
2023-02-06T18:03:47.871Z,77.12
2023-02-06T18:07:00.348Z,69.62
2023-02-06T18:10:13.030Z,68.53
2023-02-06T18:13:25.467Z,90.53
2023-02-06T18:16:38.881Z,72.32
2023-02-06T18:19:52.190Z,53.45
2023-02-06T18:23:04.795Z,58.97
2023-02-06T18:26:17.242Z,40.72
2023-02-06T18:29:40.149Z,37.85
2023-02-06T18:33:00.104Z,34.67
2023-02-06T18:36:12.731Z,28.15
2023-02-06T18:39:25.378Z,35.78
2023-02-06T18:42:54.584Z,31.77
2023-02-06T18:46:07.384Z,26.58
2023-02-06T18:49:20.041Z,28.58
2023-02-06T18:52:32.400Z,30.48
2023-02-06T18:55:45.032Z,27.92
2023-02-06T18:58:57.350Z,30.98
2023-02-06T19:02:11.322Z,35.22
2023-02-06T19:05:23.763Z,32.63
2023-02-06T19:08:36.360Z,25.80
2023-02-06T19:11:48.769Z,27.45
2023-02-06T19:15:01.376Z,30.75
2023-02-06T19:18:13.727Z,28.20
2023-02-06T19:21:27.585Z,33.00
2023-02-06T19:24:42.514Z,26.77
2023-02-06T19:27:56.739Z,26.02
2023-02-06T19:31:09.592Z,26.35
2023-02-06T19:34:22.302Z,25.88
2023-02-06T19:37:34.669Z,22.33
2023-02-06T19:40:48.640Z,22.60
2023-02-06T19:44:11.622Z,23.15
2023-02-06T19:47:24.300Z,25.70
2023-02-06T19:50:36.897Z,23.95
2023-02-06T19:53:50.243Z,34.40
2023-02-06T19:57:02.716Z,31.45
2023-02-06T20:00:15.659Z,29.92
2023-02-06T20:03:28.356Z,39.22
2023-02-06T20:06:43.801Z,41.47
2023-02-06T20:09:56.458Z,40.50
2023-02-06T20:13:08.883Z,46.00
2023-02-06T20:16:23.856Z,30.55
2023-02-06T20:19:36.329Z,28.25
2023-02-06T20:22:48.993Z,26.40
2023-02-06T20:26:01.976Z,30.48
2023-02-06T20:29:33.983Z,28.92
2023-02-06T20:32:46.296Z,21.52
2023-02-06T20:35:58.881Z,25.02
2023-02-06T20:39:12.696Z,24.73
2023-02-06T20:42:27.310Z,24.42
2023-02-06T20:45:39.770Z,29.02
2023-02-06T20:48:56.942Z,27.25
2023-02-06T20:52:09.328Z,24.85
2023-02-06T20:55:21.985Z,27.65
2023-02-06T20:58:34.286Z,20.77
2023-02-06T21:01:46.898Z,25.35
2023-02-06T21:04:59.285Z,24.75
2023-02-06T21:08:11.883Z,28.48
2023-02-06T21:11:24.310Z,29.90
2023-02-06T21:14:36.919Z,35.88
2023-02-06T21:17:49.404Z,32.40
2023-02-06T21:21:09.060Z,30.33
2023-02-06T21:24:21.416Z,26.65
2023-02-06T21:27:34.179Z,22.15
2023-02-06T21:30:47.164Z,24.60
2023-02-06T21:34:03.196Z,28.62
2023-02-06T21:37:15.615Z,35.15
2023-02-06T21:40:28.261Z,35.95
2023-02-06T21:43:40.652Z,30.45
2023-02-06T21:46:53.345Z,25.40
2023-02-06T21:50:06.337Z,29.52
2023-02-06T21:53:18.962Z,26.75
2023-02-06T21:56:31.437Z,25.37
2023-02-06T21:59:44.112Z,27.42
2023-02-06T22:02:56.463Z,29.65
2023-02-06T22:06:11.592Z,24.20
2023-02-06T22:09:24.074Z,30.95
2023-02-06T22:12:36.644Z,35.85
2023-02-06T22:15:51.339Z,37.30
2023-02-06T22:19:04.466Z,42.00
2023-02-06T22:22:17.079Z,36.22
2023-02-06T22:25:29.692Z,40.08
2023-02-06T22:28:42.264Z,42.05
2023-02-06T22:31:54.892Z,41.37
2023-02-06T22:35:07.529Z,35.08
2023-02-06T22:38:20.109Z,30.67
2023-02-06T22:41:32.510Z,32.67
2023-02-06T22:44:46.142Z,33.47
2023-02-06T22:47:58.480Z,32.78
2023-02-06T22:51:11.340Z,38.83
2023-02-06T22:54:23.736Z,34.75
2023-02-06T22:57:37.279Z,37.13
2023-02-06T23:00:49.693Z,28.92
2023-02-06T23:04:03.471Z,30.17
2023-02-06T23:07:15.863Z,26.35
2023-02-06T23:10:28.472Z,35.63
2023-02-06T23:13:40.887Z,32.92
2023-02-06T23:16:53.647Z,34.70
2023-02-06T23:20:07.113Z,31.80
2023-02-06T23:23:19.780Z,37.28
2023-02-06T23:26:32.528Z,29.25
2023-02-06T23:29:45.510Z,39.13
2023-02-06T23:32:57.978Z,41.42
2023-02-06T23:36:15.563Z,38.63
2023-02-06T23:39:27.896Z,35.83
2023-02-06T23:42:40.554Z,39.88
2023-02-06T23:45:52.958Z,34.53
2023-02-06T23:49:06.486Z,39.33
2023-02-06T23:52:18.884Z,42.50
2023-02-06T23:55:31.676Z,48.85
2023-02-06T23:58:44.054Z,74.70
